createdAt,value
2023-03-23T15:58:51.396Z,20.74
2023-03-23T16:02:04.275Z,20.91
2023-03-23T16:05:16.939Z,21.23
2023-03-23T16:08:29.315Z,21.45
2023-03-23T16:11:42.275Z,21.61
2023-03-23T16:14:54.613Z,21.57
2023-03-23T16:18:07.332Z,21.19
2023-03-23T16:21:19.681Z,20.91
2023-03-23T16:24:32.549Z,20.72
2023-03-23T16:27:51.285Z,20.28
2023-03-23T16:31:05.004Z,20.01
2023-03-23T16:34:17.401Z,19.88
2023-03-23T16:37:33.377Z,20.00
2023-03-23T16:40:46.715Z,19.77
2023-03-23T16:43:59.350Z,19.49
2023-03-23T16:47:11.925Z,19.21
2023-03-23T16:50:24.551Z,18.94
2023-03-23T16:53:37.726Z,18.66
2023-03-23T16:56:50.499Z,18.49
2023-03-23T17:00:06.036Z,18.32
2023-03-23T17:03:19.472Z,18.15
2023-03-23T17:06:31.941Z,18.00
2023-03-23T17:09:44.557Z,17.82
2023-03-23T17:12:56.897Z,17.69
2023-03-23T17:16:09.661Z,17.58
2023-03-23T17:19:22.062Z,17.46
2023-03-23T17:22:34.686Z,17.34
2023-03-23T17:25:47.334Z,17.25
2023-03-23T17:29:01.126Z,17.17
2023-03-23T17:32:13.840Z,16.98
2023-03-23T17:35:26.425Z,16.79
2023-03-23T17:38:38.775Z,16.66
2023-03-23T17:41:51.418Z,16.47
2023-03-23T17:45:04.945Z,16.25
2023-03-23T17:48:17.603Z,16.11
2023-03-23T17:51:29.940Z,15.85
2023-03-23T17:54:42.544Z,15.68
2023-03-23T17:57:54.880Z,15.48
2023-03-23T18:01:07.609Z,15.26
2023-03-23T18:04:20.314Z,15.04
2023-03-23T18:07:32.657Z,15.01
2023-03-23T18:10:45.288Z,14.94
2023-03-23T18:13:57.712Z,14.82
2023-03-23T18:17:10.401Z,14.79
2023-03-23T18:20:22.940Z,14.63
2023-03-23T18:23:43.084Z,14.46
2023-03-23T18:27:02.250Z,14.35
2023-03-23T18:30:14.926Z,14.20
2023-03-23T18:33:27.291Z,14.02
2023-03-23T18:36:39.891Z,13.96
2023-03-23T18:39:53.636Z,13.96
2023-03-23T18:43:06.575Z,13.99
2023-03-23T18:46:18.986Z,13.98
2023-03-23T18:49:33.636Z,13.87
2023-03-23T18:52:46.183Z,13.87
2023-03-23T18:56:23.989Z,13.86
2023-03-23T18:59:37.066Z,13.78
2023-03-23T19:02:52.061Z,13.69
2023-03-23T19:06:06.076Z,13.58
2023-03-23T19:09:19.199Z,13.61
2023-03-23T19:12:32.105Z,13.58
2023-03-23T19:15:44.872Z,13.30
2023-03-23T19:18:57.345Z,13.14
2023-03-23T19:22:10.005Z,13.00
2023-03-23T19:25:22.615Z,12.99
2023-03-23T19:31:51.088Z,13.01
2023-03-23T19:35:04.119Z,12.95
2023-03-23T19:38:17.744Z,12.77
2023-03-23T19:41:31.158Z,12.64
2023-03-23T19:44:43.550Z,12.60
2023-03-23T19:47:56.333Z,12.48
2023-03-23T19:51:09.353Z,12.40
2023-03-23T19:54:22.489Z,12.32
2023-03-23T19:57:35.251Z,12.24
2023-03-23T20:00:48.635Z,12.22
2023-03-23T20:04:04.944Z,12.22
2023-03-23T20:07:17.560Z,12.15
2023-03-23T20:10:30.557Z,12.02
2023-03-23T20:13:43.313Z,11.95
2023-03-23T20:16:56.108Z,11.90
2023-03-23T20:20:10.443Z,11.90
2023-03-23T20:23:23.387Z,11.88
2023-03-23T20:26:38.888Z,11.87
2023-03-23T20:29:53.551Z,11.81
2023-03-23T20:33:05.953Z,11.69
2023-03-23T20:36:20.029Z,11.65
2023-03-23T20:39:32.960Z,11.60
2023-03-23T20:42:45.601Z,11.54
2023-03-23T20:46:00.993Z,11.56
2023-03-23T20:49:14.058Z,11.54
2023-03-23T20:52:26.414Z,11.47
2023-03-23T20:55:39.020Z,11.47
2023-03-23T20:58:51.396Z,11.46
2023-03-23T21:02:05.483Z,11.48
2023-03-23T21:05:17.791Z,11.45
2023-03-23T21:08:30.762Z,11.42
2023-03-23T21:11:43.506Z,11.42
2023-03-23T21:14:56.156Z,11.44
2023-03-23T21:18:08.827Z,11.49
2023-03-23T21:21:21.825Z,11.55
2023-03-23T21:24:38.593Z,11.60
2023-03-23T21:27:52.215Z,11.42
2023-03-23T21:31:06.026Z,11.31
2023-03-23T21:34:18.708Z,11.30
2023-03-23T21:37:31.046Z,11.31
2023-03-23T21:40:43.915Z,11.22
2023-03-23T21:43:56.718Z,11.11
2023-03-23T21:47:10.844Z,10.94
2023-03-23T21:50:24.334Z,10.90
2023-03-23T21:53:37.146Z,10.89
2023-03-23T21:56:49.724Z,10.84
2023-03-23T22:00:02.417Z,10.83
2023-03-23T22:03:19.176Z,10.89
2023-03-23T22:06:34.391Z,10.81
2023-03-23T22:09:46.779Z,10.84
2023-03-23T22:12:59.476Z,10.80
2023-03-23T22:16:17.756Z,10.71
2023-03-23T22:19:31.342Z,10.61
2023-03-23T22:22:43.766Z,10.51
2023-03-23T22:25:57.118Z,10.45
2023-03-23T22:29:11.317Z,10.32
2023-03-23T22:32:24.293Z,10.21
2023-03-23T22:35:36.789Z,10.21
2023-03-23T22:38:49.701Z,10.18
2023-03-23T22:42:02.112Z,10.21
2023-03-23T22:45:14.833Z,10.22
2023-03-23T22:48:27.517Z,10.17
2023-03-23T22:51:40.680Z,10.09
2023-03-23T22:54:53.543Z,10.09
2023-03-23T22:58:06.254Z,10.01
2023-03-23T23:01:19.887Z,9.94
2023-03-23T23:04:33.238Z,9.94
2023-03-23T23:07:45.686Z,9.88
2023-03-23T23:11:01.272Z,9.92
2023-03-23T23:14:13.686Z,9.88
2023-03-23T23:17:26.699Z,9.84
2023-03-23T23:20:39.455Z,9.83
2023-03-23T23:23:52.557Z,9.73
2023-03-23T23:27:04.974Z,9.75
2023-03-23T23:30:17.802Z,9.79
2023-03-23T23:33:30.264Z,9.81
2023-03-23T23:36:43.019Z,9.84
2023-03-23T23:39:55.693Z,9.76
2023-03-23T23:43:09.748Z,9.78
2023-03-23T23:46:22.489Z,9.71
2023-03-23T23:49:35.395Z,9.68
2023-03-23T23:52:50.145Z,9.60
2023-03-23T23:56:03.624Z,9.53
2023-03-23T23:59:16.312Z,9.45
